Time;durP1;ratioP1;P1;durP2;ratioP2;P2;SDS_P1;SDS_P2;PMS_P1;PMS_P2;Temp;Humidity;BMP_temperature;BMP_pressure;BME280_temperature;BME280_humidity;BME280_pressure;Samples;Min_cycle;Max_cycle;Signal;HPM_P1;HPM_P2
2023/06/13 00:03:53;;;;;;;;;5.33;4.67;;;;;;;;6490184;46;8970;-59
2023/06/13 00:09:56;;;;;;;;;6.33;6.33;;;;;;;;6488825;39;8927;-59
2023/06/13 00:15:58;;;;;;;;;4.00;4.00;;;;;;;;6488956;39;9550;-58
2023/06/13 00:22:02;;;;;;;;;4.00;4.00;;;;;;;;6489941;39;8879;-60
2023/06/13 00:28:05;;;;;;;;;4.33;4.33;;;;;;;;6488465;46;8929;-59
2023/06/13 00:34:08;;;;;;;;;7.00;4.67;;;;;;;;6488678;31;8903;-60
2023/06/13 00:40:11;;;;;;;;;4.33;4.33;;;;;;;;6489904;39;8919;-60
2023/06/13 00:46:17;;;;;;;;;4.00;4.00;;;;;;;;6489855;31;8931;-60
2023/06/13 00:52:19;;;;;;;;;4.00;4.00;;;;;;;;6488640;46;8916;-59
2023/06/13 00:58:22;;;;;;;;;6.00;6.00;;;;;;;;6488918;31;8855;-59
2023/06/13 01:04:27;;;;;;;;;6.00;6.00;;;;;;;;6488587;39;8955;-60
2023/06/13 01:10:32;;;;;;;;;4.00;4.00;;;;;;;;6489112;31;8890;-58
2023/06/13 01:16:42;;;;;;;;;6.67;6.67;;;;;;;;6488912;46;8945;-58
2023/06/13 01:23:16;;;;;;;;;4.67;4.33;;;;;;;;6489048;39;8907;-59
2023/06/13 01:29:20;;;;;;;;;4.00;4.00;;;;;;;;6488137;46;8907;-58
2023/06/13 01:35:24;;;;;;;;;4.67;4.67;;;;;;;;6488884;39;8996;-60
2023/06/13 01:41:28;;;;;;;;;6.00;6.00;;;;;;;;6488855;39;9480;-59
2023/06/13 01:47:41;;;;;;;;;4.00;4.00;;;;;;;;6488792;39;8875;-59
2023/06/13 01:53:54;;;;;;;;;7.00;5.33;;;;;;;;6488255;39;8907;-60
2023/06/13 02:00:01;;;;;;;;;4.00;4.00;;;;;;;;6488379;39;8859;-60
2023/06/13 02:06:16;;;;;;;;;4.33;4.33;;;;;;;;6489009;39;8931;-60
2023/06/13 02:12:20;;;;;;;;;3.00;3.00;;;;;;;;6487904;39;8907;-60
2023/06/13 02:18:22;;;;;;;;;4.00;4.00;;;;;;;;6489369;39;9647;-58
2023/06/13 02:24:25;;;;;;;;;6.67;6.67;;;;;;;;6491116;39;8970;-60
2023/06/13 02:30:27;;;;;;;;;4.00;4.00;;;;;;;;6489642;39;9690;-59
2023/06/13 02:36:30;;;;;;;;;9.00;8.33;;;;;;;;6488229;31;8899;-59
2023/06/13 02:42:32;;;;;;;;;6.00;6.00;;;;;;;;6489616;39;9539;-59
2023/06/13 02:48:35;;;;;;;;;7.67;7.67;;;;;;;;6489781;31;8899;-58
2023/06/13 02:54:38;;;;;;;;;5.67;5.67;;;;;;;;6489279;39;8923;-59
2023/06/13 03:00:42;;;;;;;;;6.67;6.00;;;;;;;;6488360;39;8934;-60
2023/06/13 03:06:50;;;;;;;;;5.67;5.67;;;;;;;;6489577;39;8951;-61
2023/06/13 03:12:53;;;;;;;;;7.00;7.00;;;;;;;;6488835;46;8883;-60
2023/06/13 03:18:59;;;;;;;;;8.67;7.00;;;;;;;;6489329;46;8937;-59
2023/06/13 03:25:05;;;;;;;;;4.00;4.00;;;;;;;;6489216;39;9559;-60
2023/06/13 03:31:14;;;;;;;;;6.33;6.33;;;;;;;;6489683;39;8848;-59
2023/06/13 03:37:17;;;;;;;;;6.67;5.00;;;;;;;;6488436;39;8903;-59
2023/06/13 03:43:20;;;;;;;;;6.00;6.00;;;;;;;;6489349;46;8915;-58
2023/06/13 03:49:24;;;;;;;;;6.67;6.33;;;;;;;;6488901;46;8895;-59
2023/06/13 03:55:29;;;;;;;;;7.00;7.00;;;;;;;;6488793;39;8918;-59
2023/06/13 04:01:45;;;;;;;;;5.33;5.33;;;;;;;;6471419;31;8983;-57
2023/06/13 04:07:49;;;;;;;;;8.00;7.00;;;;;;;;6488076;31;8900;-58
2023/06/13 13:09:08;;;;;;;;;11.50;11.50;;;;;;;;6309344;39;10000054;-63
2023/06/13 13:15:16;;;;;;;;;18.50;16.50;;;;;;;;6487358;39;8914;-62
2023/06/13 13:21:19;;;;;;;;;9.75;9.50;;;;;;;;6489116;39;8851;-62
2023/06/13 13:27:23;;;;;;;;;9.00;8.00;;;;;;;;6487135;39;9238;-62
2023/06/13 13:33:30;;;;;;;;;11.50;9.50;;;;;;;;6486675;46;8955;-63
2023/06/13 13:39:35;;;;;;;;;34.50;28.25;;;;;;;;6487667;39;9514;-61
2023/06/13 13:45:39;;;;;;;;;22.00;20.75;;;;;;;;6488019;46;8878;-62
2023/06/13 13:51:42;;;;;;;;;8.50;8.50;;;;;;;;6491415;39;8866;-62
2023/06/13 13:57:45;;;;;;;;;9.00;9.00;;;;;;;;6490790;31;8938;-61
2023/06/13 14:03:50;;;;;;;;;8.75;8.00;;;;;;;;6489689;39;9017;-60
2023/06/13 14:09:53;;;;;;;;;8.75;8.75;;;;;;;;6492303;39;9025;-61
2023/06/13 14:15:55;;;;;;;;;8.75;8.75;;;;;;;;6491176;46;8894;-61
2023/06/13 14:21:58;;;;;;;;;10.25;9.75;;;;;;;;6494035;31;8862;-62
2023/06/13 14:28:00;;;;;;;;;10.50;10.50;;;;;;;;6491583;46;8906;-61
2023/06/13 14:34:03;;;;;;;;;9.00;8.00;;;;;;;;6491970;31;8860;-62
2023/06/13 14:40:07;;;;;;;;;9.75;9.25;;;;;;;;6492931;46;8893;-62
2023/06/13 14:46:11;;;;;;;;;8.25;8.25;;;;;;;;6492221;31;8862;-62
2023/06/13 14:52:13;;;;;;;;;7.25;7.25;;;;;;;;6491990;39;8882;-61
2023/06/13 14:58:16;;;;;;;;;5.50;3.25;;;;;;;;6492396;31;9026;-62
2023/06/13 15:04:19;;;;;;;;;10.00;10.00;;;;;;;;6491282;46;8895;-64
2023/06/13 15:10:23;;;;;;;;;10.00;10.00;;;;;;;;6493531;39;9003;-63
2023/06/13 15:16:26;;;;;;;;;8.25;7.75;;;;;;;;6493005;31;9524;-61
2023/06/13 15:22:29;;;;;;;;;9.00;8.25;;;;;;;;6492971;39;9561;-61
2023/06/13 15:28:32;;;;;;;;;6.25;6.25;;;;;;;;6492134;39;9585;-61
2023/06/13 15:34:41;;;;;;;;;8.75;8.75;;;;;;;;6493271;36;8859;-62
2023/06/13 15:40:43;;;;;;;;;8.25;8.25;;;;;;;;6491034;31;8830;-62
2023/06/13 15:46:47;;;;;;;;;7.50;7.50;;;;;;;;6489677;39;8879;-61
2023/06/13 15:52:52;;;;;;;;;9.00;8.75;;;;;;;;6489661;39;9534;-62
2023/06/13 15:58:54;;;;;;;;;9.50;8.25;;;;;;;;6489753;39;8917;-61
2023/06/13 16:05:01;;;;;;;;;8.00;8.00;;;;;;;;6490542;39;8903;-61
2023/06/13 16:11:08;;;;;;;;;8.00;6.50;;;;;;;;6489795;46;8862;-62
2023/06/13 16:17:11;;;;;;;;;8.00;8.00;;;;;;;;6489799;46;8842;-61
2023/06/13 16:23:15;;;;;;;;;6.00;5.75;;;;;;;;6488906;46;10097;-59
2023/06/13 16:29:17;;;;;;;;;9.75;9.75;;;;;;;;6489606;46;8898;-62
2023/06/13 16:35:20;;;;;;;;;8.00;7.25;;;;;;;;6488892;39;9586;-61
2023/06/13 16:41:24;;;;;;;;;10.50;10.00;;;;;;;;6490848;31;8882;-63
2023/06/13 16:47:27;;;;;;;;;9.00;8.00;;;;;;;;6488254;39;8930;-60
2023/06/13 16:53:30;;;;;;;;;10.50;9.00;;;;;;;;6489510;46;8925;-61
2023/06/13 16:59:34;;;;;;;;;11.50;11.50;;;;;;;;6488941;39;9054;-60
2023/06/13 17:05:36;;;;;;;;;7.25;7.25;;;;;;;;6489141;39;8949;-60
2023/06/13 17:11:39;;;;;;;;;12.50;10.75;;;;;;;;6489942;39;9632;-62
2023/06/13 17:17:44;;;;;;;;;6.00;6.00;;;;;;;;6490231;46;8843;-61
2023/06/13 17:23:47;;;;;;;;;5.75;5.75;;;;;;;;6488652;46;8990;-62
2023/06/13 17:29:50;;;;;;;;;4.00;4.00;;;;;;;;6488969;39;8965;-61
2023/06/13 17:35:53;;;;;;;;;7.00;7.00;;;;;;;;6488991;39;8894;-61
2023/06/13 17:41:55;;;;;;;;;7.25;7.25;;;;;;;;6489673;39;8922;-62
2023/06/13 17:47:57;;;;;;;;;7.75;7.25;;;;;;;;6490088;39;8867;-60
2023/06/13 17:54:00;;;;;;;;;8.50;8.50;;;;;;;;6488541;39;8909;-60
2023/06/13 18:00:03;;;;;;;;;8.75;8.75;;;;;;;;6489358;39;9390;-60
2023/06/13 18:06:13;;;;;;;;;9.25;9.25;;;;;;;;6489236;46;8882;-61
2023/06/13 18:12:16;;;;;;;;;10.50;10.00;;;;;;;;6489195;39;8890;-60
2023/06/13 18:18:23;;;;;;;;;7.67;7.67;;;;;;;;6488441;39;8886;-61
2023/06/13 18:24:34;;;;;;;;;9.00;9.00;;;;;;;;6488334;39;8866;-61
2023/06/13 18:30:39;;;;;;;;;10.33;10.33;;;;;;;;6489485;31;9611;-60
2023/06/13 18:36:42;;;;;;;;;8.67;8.67;;;;;;;;6487965;47;8909;-61
2023/06/13 18:42:44;;;;;;;;;11.67;11.00;;;;;;;;6489777;31;8877;-61
2023/06/13 18:48:47;;;;;;;;;11.00;11.00;;;;;;;;6488267;47;8901;-61
2023/06/13 18:54:50;;;;;;;;;8.67;8.67;;;;;;;;6488555;31;9088;-61
2023/06/13 19:00:55;;;;;;;;;13.00;12.33;;;;;;;;6488636;39;8836;-60
2023/06/13 19:06:58;;;;;;;;;11.00;11.00;;;;;;;;6490586;39;8973;-62
2023/06/13 19:13:03;;;;;;;;;15.67;14.00;;;;;;;;6491137;39;9653;-59
2023/06/13 19:19:08;;;;;;;;;11.00;11.00;;;;;;;;6490308;46;8959;-61
2023/06/13 19:25:12;;;;;;;;;12.00;10.67;;;;;;;;6491282;31;8879;-62
2023/06/13 19:31:15;;;;;;;;;10.67;10.67;;;;;;;;6491002;31;8899;-60
2023/06/13 19:37:19;;;;;;;;;16.00;14.67;;;;;;;;6490250;46;8883;-61
2023/06/13 19:43:24;;;;;;;;;11.67;11.67;;;;;;;;6490669;39;8937;-60
2023/06/13 19:49:31;;;;;;;;;11.67;11.67;;;;;;;;6489683;39;8895;-60
2023/06/13 19:55:34;;;;;;;;;4.00;4.00;;;;;;;;6489961;31;8970;-60
2023/06/13 20:01:38;;;;;;;;;15.67;15.67;;;;;;;;6490706;31;8887;-61
2023/06/13 20:07:41;;;;;;;;;11.00;11.00;;;;;;;;6490448;46;8911;-61
2023/06/13 20:13:46;;;;;;;;;13.33;12.00;;;;;;;;6490271;39;8863;-59
2023/06/13 20:19:48;;;;;;;;;9.33;9.33;;;;;;;;6490296;39;8995;-60
2023/06/13 20:25:50;;;;;;;;;12.33;12.00;;;;;;;;6489418;39;8871;-62
2023/06/13 20:31:54;;;;;;;;;17.33;16.00;;;;;;;;6489722;39;8907;-59
2023/06/13 20:37:58;;;;;;;;;15.00;13.67;;;;;;;;6489453;39;8895;-60
2023/06/13 20:44:01;;;;;;;;;14.00;11.67;;;;;;;;6489289;46;8875;-61
2023/06/13 20:50:05;;;;;;;;;14.00;13.00;;;;;;;;6490030;39;8935;-60
2023/06/13 20:56:07;;;;;;;;;14.00;14.00;;;;;;;;6489484;39;8906;-61
2023/06/13 21:02:11;;;;;;;;;16.33;15.33;;;;;;;;6489901;46;8938;-60
2023/06/13 21:08:16;;;;;;;;;16.00;16.00;;;;;;;;6490375;39;9001;-60
2023/06/13 21:14:18;;;;;;;;;16.33;15.00;;;;;;;;6489768;39;8943;-59
2023/06/13 21:20:26;;;;;;;;;19.00;14.33;;;;;;;;6489490;39;8929;-62
2023/06/13 21:26:28;;;;;;;;;16.00;15.67;;;;;;;;6490174;39;8888;-61
2023/06/13 21:32:31;;;;;;;;;15.33;13.00;;;;;;;;6488761;39;9612;-60
2023/06/13 21:38:33;;;;;;;;;12.00;11.00;;;;;;;;6489402;46;8935;-59
2023/06/13 21:44:35;;;;;;;;;12.33;12.33;;;;;;;;6490376;39;9629;-61
2023/06/13 21:50:40;;;;;;;;;12.00;12.00;;;;;;;;6490132;39;8982;-60
2023/06/13 21:56:43;;;;;;;;;14.33;14.33;;;;;;;;6490006;39;8879;-61
2023/06/13 22:02:47;;;;;;;;;13.67;12.33;;;;;;;;6489604;39;8895;-61
2023/06/13 22:08:53;;;;;;;;;13.00;12.33;;;;;;;;6489622;46;8943;-59
2023/06/13 22:14:56;;;;;;;;;12.33;12.33;;;;;;;;6488770;39;9588;-60
2023/06/13 22:20:59;;;;;;;;;13.33;12.33;;;;;;;;6488218;31;8879;-60
2023/06/13 22:27:02;;;;;;;;;10.00;10.00;;;;;;;;6488863;47;8876;-60
2023/06/13 22:33:06;;;;;;;;;10.00;10.00;;;;;;;;6489143;39;8912;-61
2023/06/13 22:39:10;;;;;;;;;10.67;9.67;;;;;;;;6490712;39;8891;-61
2023/06/13 22:45:14;;;;;;;;;15.33;14.33;;;;;;;;6490770;46;8828;-61
2023/06/13 22:51:18;;;;;;;;;12.00;11.00;;;;;;;;6490362;39;8928;-60
2023/06/13 22:57:21;;;;;;;;;12.00;12.00;;;;;;;;6490957;39;8859;-59
2023/06/13 23:03:26;;;;;;;;;10.00;10.00;;;;;;;;6490615;39;9826;-60
2023/06/13 23:09:33;;;;;;;;;6.00;6.00;;;;;;;;6490527;46;9071;-61
2023/06/13 23:15:37;;;;;;;;;10.00;10.00;;;;;;;;6309905;39;10000912;-59
2023/06/13 23:21:39;;;;;;;;;9.67;9.67;;;;;;;;6490987;46;8887;-60
2023/06/13 23:27:41;;;;;;;;;9.00;9.00;;;;;;;;6490531;39;8847;-60
2023/06/13 23:33:48;;;;;;;;;10.00;10.00;;;;;;;;6490677;39;8907;-61
2023/06/13 23:39:51;;;;;;;;;9.67;8.67;;;;;;;;6490195;46;8905;-60
2023/06/13 23:45:55;;;;;;;;;9.00;9.00;;;;;;;;6491882;39;9418;-60
2023/06/13 23:52:00;;;;;;;;;8.00;8.00;;;;;;;;6490429;46;8935;-60
2023/06/13 23:58:03;;;;;;;;;10.33;10.00;;;;;;;;6490982;39;9570;-59
